Time;durP1;ratioP1;P1;durP2;ratioP2;P2;SDS_P1;SDS_P2;PMS_P1;PMS_P2;Temp;Humidity;BMP_temperature;BMP_pressure;BME280_temperature;BME280_humidity;BME280_pressure;Samples;Min_cycle;Max_cycle;Signal;HPM_P1;HPM_P2
2023/05/17 00:02:10;;;;;;;7.35;3.45;;;;;;;;;;5070835;28;20530;-60
2023/05/17 00:04:35;;;;;;;5.60;3.28;;;;;;;;;;5072179;28;20031;-60
2023/05/17 00:07:01;;;;;;;12.05;3.83;;;;;;;;;;5070999;28;20047;-60
2023/05/17 00:09:26;;;;;;;7.30;3.75;;;;;;;;;;5062205;28;20029;-60
2023/05/17 00:11:52;;;;;;;6.82;3.28;;;;;;;;;;5066114;28;20040;-60
2023/05/17 00:14:17;;;;;;;6.85;3.47;;;;;;;;;;5071329;28;20030;-60
2023/05/17 00:16:43;;;;;;;7.68;3.70;;;;;;;;;;5071919;28;20036;-60
2023/05/17 00:19:08;;;;;;;8.85;4.00;;;;;;;;;;5068848;28;20086;-60
2023/05/17 00:21:34;;;;;;;6.75;3.90;;;;;;;;;;5062109;28;20025;-60
2023/05/17 00:23:59;;;;;;;8.05;3.60;;;;;;;;;;5069618;28;20208;-60
2023/05/17 00:26:25;;;;;;;7.68;3.53;;;;;;;;;;5072019;28;20028;-60
2023/05/17 00:28:50;;;;;;;11.25;4.15;;;;;;;;;;5071130;28;20460;-60
2023/05/17 00:31:16;;;;;;;8.82;4.60;;;;;;;;;;5071678;28;20029;-60
2023/05/17 00:33:41;;;;;;;7.55;3.85;;;;;;;;;;5069534;28;20032;-60
2023/05/17 00:36:07;;;;;;;8.20;3.95;;;;;;;;;;5071251;28;20028;-59
2023/05/17 00:38:32;;;;;;;8.13;3.97;;;;;;;;;;5072321;28;20053;-60
2023/05/17 00:40:57;;;;;;;10.48;4.28;;;;;;;;;;5069192;28;20388;-60
2023/05/17 00:43:24;;;;;;;10.00;4.63;;;;;;;;;;5070586;28;20029;-61
2023/05/17 00:45:50;;;;;;;12.27;5.00;;;;;;;;;;5065231;28;20039;-61
2023/05/17 00:48:16;;;;;;;8.27;4.60;;;;;;;;;;5072282;28;20052;-60
2023/05/17 00:50:41;;;;;;;12.25;5.00;;;;;;;;;;5071711;28;20047;-61
2023/05/17 00:53:08;;;;;;;10.70;4.65;;;;;;;;;;5071126;28;20033;-59
2023/05/17 00:55:34;;;;;;;8.52;4.70;;;;;;;;;;5071013;28;20036;-60
2023/05/17 00:57:59;;;;;;;8.80;4.30;;;;;;;;;;5070461;28;20036;-60
2023/05/17 01:00:25;;;;;;;10.93;4.40;;;;;;;;;;5070780;28;20123;-62
2023/05/17 01:02:51;;;;;;;8.60;4.53;;;;;;;;;;5068490;28;20125;-61
2023/05/17 01:05:16;;;;;;;7.15;4.00;;;;;;;;;;5071027;28;20029;-60
2023/05/17 01:07:42;;;;;;;7.38;4.03;;;;;;;;;;5057656;28;20479;-61
2023/05/17 01:10:08;;;;;;;9.02;4.30;;;;;;;;;;5063554;28;20039;-61
2023/05/17 01:12:53;;;;;;;11.20;4.68;;;;;;;;;;5071558;28;20037;-61
2023/05/17 01:15:24;;;;;;;10.48;5.78;;;;;;;;;;5070333;28;20106;-61
2023/05/17 01:18:22;;;;;;;11.32;4.85;;;;;;;;;;5067939;28;20036;-61
2023/05/17 01:20:49;;;;;;;12.95;4.50;;;;;;;;;;5068204;28;20033;-61
2023/05/17 01:23:38;;;;;;;12.85;4.90;;;;;;;;;;5064051;28;20031;-61
2023/05/17 01:26:08;;;;;;;9.48;4.70;;;;;;;;;;5070635;28;20031;-61
2023/05/17 01:28:37;;;;;;;12.13;5.05;;;;;;;;;;5071756;28;20387;-61
2023/05/17 01:31:02;;;;;;;13.93;4.80;;;;;;;;;;5067342;28;20033;-59
2023/05/17 01:33:28;;;;;;;13.73;4.90;;;;;;;;;;5067042;28;20036;-60
2023/05/17 01:35:54;;;;;;;13.90;4.72;;;;;;;;;;5070535;28;20032;-59
2023/05/17 01:38:19;;;;;;;8.98;4.88;;;;;;;;;;5070298;28;20055;-60
2023/05/17 01:41:03;;;;;;;13.75;5.38;;;;;;;;;;5069001;28;20072;-60
2023/05/17 01:43:41;;;;;;;10.48;4.55;;;;;;;;;;5057361;28;20035;-60
2023/05/17 01:46:12;;;;;;;11.50;4.80;;;;;;;;;;5067647;28;20032;-60
2023/05/17 01:48:48;;;;;;;17.15;5.60;;;;;;;;;;5070279;28;20566;-60
2023/05/17 01:51:18;;;;;;;18.15;5.38;;;;;;;;;;5069259;28;20063;-60
2023/05/17 01:53:50;;;;;;;11.20;5.60;;;;;;;;;;5071387;28;20036;-60
2023/05/17 01:56:20;;;;;;;12.80;5.28;;;;;;;;;;5071285;28;20491;-60
2023/05/17 01:58:47;;;;;;;11.85;5.60;;;;;;;;;;5069247;28;20039;-61
2023/05/17 02:01:18;;;;;;;15.63;7.03;;;;;;;;;;5069805;28;20044;-60
2023/05/17 02:03:47;;;;;;;14.45;5.60;;;;;;;;;;5071509;28;20032;-59
2023/05/17 02:06:12;;;;;;;9.48;5.35;;;;;;;;;;5068594;28;20044;-60
2023/05/17 02:08:37;;;;;;;15.13;5.55;;;;;;;;;;5071278;28;20024;-60
2023/05/17 02:11:03;;;;;;;14.25;5.65;;;;;;;;;;5066241;28;20028;-59
2023/05/17 02:13:28;;;;;;;10.38;5.50;;;;;;;;;;5071593;28;20090;-59
2023/05/17 02:15:54;;;;;;;13.80;5.40;;;;;;;;;;5065100;28;20029;-61
2023/05/17 02:18:20;;;;;;;15.45;6.13;;;;;;;;;;5068888;28;20093;-59
2023/05/17 02:20:46;;;;;;;17.52;6.38;;;;;;;;;;5068278;28;20089;-59
2023/05/17 02:23:11;;;;;;;13.57;5.70;;;;;;;;;;5070002;28;20380;-59
2023/05/17 02:25:37;;;;;;;14.15;5.55;;;;;;;;;;5070928;28;20027;-59
2023/05/17 02:28:02;;;;;;;17.83;5.90;;;;;;;;;;5069564;28;20060;-59
2023/05/17 02:30:27;;;;;;;13.88;6.10;;;;;;;;;;5068471;28;20033;-59
2023/05/17 02:32:55;;;;;;;18.05;6.20;;;;;;;;;;5063837;28;20094;-59
2023/05/17 02:35:20;;;;;;;11.50;5.78;;;;;;;;;;5061909;28;20097;-58
2023/05/17 02:37:46;;;;;;;13.43;6.13;;;;;;;;;;5070154;28;20033;-58
2023/05/17 02:40:12;;;;;;;12.45;5.72;;;;;;;;;;5069177;28;20124;-59
2023/05/17 02:42:38;;;;;;;16.02;6.03;;;;;;;;;;5068923;28;20437;-59
2023/05/17 02:45:04;;;;;;;17.00;5.63;;;;;;;;;;5064928;28;20083;-59
2023/05/17 02:47:30;;;;;;;17.50;6.25;;;;;;;;;;5069954;28;20035;-58
2023/05/17 02:49:55;;;;;;;20.73;6.40;;;;;;;;;;5071412;28;20032;-58
2023/05/17 02:52:20;;;;;;;19.13;6.15;;;;;;;;;;5073486;28;20032;-59
2023/05/17 02:54:46;;;;;;;16.60;5.88;;;;;;;;;;5072173;28;20060;-59
2023/05/17 02:57:12;;;;;;;18.08;6.22;;;;;;;;;;5071192;28;20036;-59
2023/05/17 02:59:37;;;;;;;15.55;5.75;;;;;;;;;;5071796;28;20457;-59
2023/05/17 03:02:03;;;;;;;13.88;6.45;;;;;;;;;;5069968;28;20024;-59
2023/05/17 03:04:28;;;;;;;16.27;6.32;;;;;;;;;;5070111;28;20354;-61
2023/05/17 03:06:54;;;;;;;19.30;6.40;;;;;;;;;;5070682;28;20036;-61
2023/05/17 03:09:20;;;;;;;18.73;6.20;;;;;;;;;;5072306;28;20033;-60
2023/05/17 03:11:46;;;;;;;21.25;6.35;;;;;;;;;;5073357;28;20438;-59
2023/05/17 03:14:11;;;;;;;22.70;6.45;;;;;;;;;;5069974;28;20036;-60
2023/05/17 03:16:37;;;;;;;21.05;6.50;;;;;;;;;;5073398;28;20059;-59
2023/05/17 03:19:03;;;;;;;20.77;6.65;;;;;;;;;;5069176;28;20028;-59
2023/05/17 03:21:28;;;;;;;14.57;5.70;;;;;;;;;;5054067;28;20025;-59
2023/05/17 03:23:53;;;;;;;12.38;5.65;;;;;;;;;;5061768;28;20048;-60
2023/05/17 03:26:19;;;;;;;18.17;6.07;;;;;;;;;;5070807;28;20400;-60
2023/05/17 03:28:45;;;;;;;20.90;5.75;;;;;;;;;;5073203;28;20037;-59
2023/05/17 03:31:10;;;;;;;15.98;6.78;;;;;;;;;;5070168;28;20036;-60
2023/05/17 03:33:36;;;;;;;14.07;5.80;;;;;;;;;;5069949;28;20034;-60
2023/05/17 03:36:02;;;;;;;13.35;5.75;;;;;;;;;;5072007;28;20467;-60
2023/05/17 03:38:27;;;;;;;17.45;6.07;;;;;;;;;;5071308;28;20064;-60
2023/05/17 03:40:53;;;;;;;19.70;5.47;;;;;;;;;;5071890;28;20461;-61
2023/05/17 03:43:19;;;;;;;22.35;6.45;;;;;;;;;;5069417;28;20044;-60
2023/05/17 03:45:44;;;;;;;17.10;6.35;;;;;;;;;;5070088;28;20124;-59
2023/05/17 03:48:10;;;;;;;19.42;6.22;;;;;;;;;;5072590;28;20041;-60
2023/05/17 03:50:35;;;;;;;15.02;5.93;;;;;;;;;;5070603;28;20028;-62
2023/05/17 03:53:01;;;;;;;16.67;6.30;;;;;;;;;;5071525;28;20465;-61
2023/05/17 03:55:26;;;;;;;18.63;6.10;;;;;;;;;;5073608;28;20033;-61
2023/05/17 03:57:51;;;;;;;15.35;6.90;;;;;;;;;;5073000;28;20390;-60
2023/05/17 04:00:20;;;;;;;20.48;6.68;;;;;;;;;;5069599;28;20040;-61
2023/05/17 04:02:50;;;;;;;15.40;6.35;;;;;;;;;;5065105;28;20081;-61
2023/05/17 04:05:16;;;;;;;18.27;6.47;;;;;;;;;;5070843;28;21784;-60
2023/05/17 04:07:41;;;;;;;17.98;6.68;;;;;;;;;;5072433;28;20509;-60
2023/05/17 04:10:07;;;;;;;21.33;7.35;;;;;;;;;;5070605;28;20029;-59
2023/05/17 04:12:32;;;;;;;17.15;6.63;;;;;;;;;;5068897;28;20032;-60
2023/05/17 04:14:58;;;;;;;21.55;7.25;;;;;;;;;;5071246;28;20036;-61
2023/05/17 04:17:23;;;;;;;17.35;7.10;;;;;;;;;;5070703;28;20032;-59
2023/05/17 04:19:49;;;;;;;23.25;7.57;;;;;;;;;;5068752;28;20396;-60
2023/05/17 04:22:14;;;;;;;18.30;6.72;;;;;;;;;;5068400;28;20032;-59
2023/05/17 04:24:40;;;;;;;16.45;6.45;;;;;;;;;;5070210;28;20453;-59
2023/05/17 04:27:06;;;;;;;19.02;6.60;;;;;;;;;;5068861;28;20038;-60
2023/05/17 04:29:31;;;;;;;18.10;7.60;;;;;;;;;;5072692;28;20376;-60
2023/05/17 04:31:56;;;;;;;20.48;7.18;;;;;;;;;;5069002;28;20464;-60
2023/05/17 04:34:23;;;;;;;24.23;7.50;;;;;;;;;;5071379;28;20032;-59
2023/05/17 04:36:49;;;;;;;20.20;7.30;;;;;;;;;;5068945;28;20103;-59
2023/05/17 04:39:14;;;;;;;21.50;7.40;;;;;;;;;;5070766;28;20720;-60
2023/05/17 04:41:40;;;;;;;20.50;6.93;;;;;;;;;;5069307;28;20027;-59
2023/05/17 04:44:06;;;;;;;17.35;7.10;;;;;;;;;;5066861;28;20479;-59
2023/05/17 04:46:32;;;;;;;20.80;6.78;;;;;;;;;;5071061;28;20350;-60
2023/05/17 04:48:57;;;;;;;17.20;7.28;;;;;;;;;;5070196;28;20066;-60
2023/05/17 04:51:23;;;;;;;21.20;7.57;;;;;;;;;;5071433;28;20518;-59
2023/05/17 04:53:48;;;;;;;22.27;7.00;;;;;;;;;;5072410;28;20029;-59
2023/05/17 04:56:14;;;;;;;20.20;7.88;;;;;;;;;;5068910;28;20094;-60
2023/05/17 04:58:39;;;;;;;25.85;7.40;;;;;;;;;;5068028;28;20403;-59
2023/05/17 05:01:05;;;;;;;19.13;7.25;;;;;;;;;;5069500;28;20397;-61
2023/05/17 05:03:30;;;;;;;18.08;7.45;;;;;;;;;;5071081;28;20060;-61
2023/05/17 05:05:56;;;;;;;19.20;7.22;;;;;;;;;;5069797;28;20039;-60
2023/05/17 05:08:21;;;;;;;19.85;7.10;;;;;;;;;;5070844;28;20035;-60
2023/05/17 05:10:47;;;;;;;23.17;7.10;;;;;;;;;;5068088;28;21584;-60
2023/05/17 05:13:12;;;;;;;20.17;7.05;;;;;;;;;;5069562;28;20043;-60
2023/05/17 05:15:38;;;;;;;22.35;7.32;;;;;;;;;;5062655;28;20804;-60
2023/05/17 05:18:03;;;;;;;19.17;6.85;;;;;;;;;;5069924;28;20044;-59
2023/05/17 05:20:30;;;;;;;21.88;7.28;;;;;;;;;;5067295;28;20104;-58
2023/05/17 05:22:57;;;;;;;23.00;7.32;;;;;;;;;;5068037;28;20032;-60
2023/05/17 05:25:22;;;;;;;16.60;6.70;;;;;;;;;;5071219;28;20032;-60
2023/05/17 05:27:48;;;;;;;20.55;6.50;;;;;;;;;;5069890;28;20432;-59
2023/05/17 05:30:20;;;;;;;17.30;6.95;;;;;;;;;;5070916;28;20032;-62
2023/05/17 05:32:47;;;;;;;19.55;6.35;;;;;;;;;;5069460;28;20031;-67
2023/05/17 05:35:12;;;;;;;13.55;6.05;;;;;;;;;;5052947;28;20044;-63
2023/05/17 05:37:37;;;;;;;17.30;6.55;;;;;;;;;;5070560;28;20033;-64
2023/05/17 05:40:03;;;;;;;17.95;5.70;;;;;;;;;;5069341;28;20079;-65
2023/05/17 05:42:29;;;;;;;18.38;5.30;;;;;;;;;;5069989;28;20158;-65
2023/05/17 05:44:54;;;;;;;16.83;5.00;;;;;;;;;;5066773;28;20029;-65
2023/05/17 05:47:19;;;;;;;18.02;4.65;;;;;;;;;;5070341;28;20086;-64
2023/05/17 05:49:45;;;;;;;20.70;5.20;;;;;;;;;;5070969;28;20021;-63
2023/05/17 05:52:10;;;;;;;18.58;5.35;;;;;;;;;;5067385;28;20145;-63
2023/05/17 05:54:36;;;;;;;18.35;5.28;;;;;;;;;;5071429;28;20033;-64
2023/05/17 05:57:01;;;;;;;15.55;4.70;;;;;;;;;;5069747;28;20048;-64
2023/05/17 05:59:26;;;;;;;10.77;4.22;;;;;;;;;;5071520;28;20039;-64
2023/05/17 06:01:52;;;;;;;13.38;4.55;;;;;;;;;;5070589;28;20033;-62
2023/05/17 06:04:17;;;;;;;16.63;4.30;;;;;;;;;;5070318;28;20036;-64
2023/05/17 06:06:43;;;;;;;19.67;4.85;;;;;;;;;;5071035;28;20028;-63
2023/05/17 06:09:11;;;;;;;17.48;4.18;;;;;;;;;;5070103;28;20029;-63
2023/05/17 06:11:36;;;;;;;15.85;4.20;;;;;;;;;;5069178;28;20048;-61
2023/05/17 06:14:02;;;;;;;27.38;3.67;;;;;;;;;;5069274;28;20121;-63
2023/05/17 06:16:27;;;;;;;14.82;3.83;;;;;;;;;;5070083;28;20056;-64
2023/05/17 06:18:53;;;;;;;14.13;3.85;;;;;;;;;;5069665;28;20041;-63
2023/05/17 06:21:18;;;;;;;18.23;4.15;;;;;;;;;;5069694;28;20033;-64
2023/05/17 06:23:43;;;;;;;14.55;4.00;;;;;;;;;;5071083;28;20032;-63
2023/05/17 06:26:10;;;;;;;17.77;4.00;;;;;;;;;;5074038;28;20484;-63
2023/05/17 06:28:36;;;;;;;16.92;3.95;;;;;;;;;;5073326;28;20033;-64
2023/05/17 06:31:01;;;;;;;11.80;3.83;;;;;;;;;;5074173;28;20043;-65
2023/05/17 06:33:27;;;;;;;19.38;3.88;;;;;;;;;;5074861;28;20028;-64
2023/05/17 06:35:54;;;;;;;13.20;3.80;;;;;;;;;;5074746;28;20046;-64
2023/05/17 06:38:19;;;;;;;13.05;3.78;;;;;;;;;;5072069;28;20048;-63
2023/05/17 06:40:45;;;;;;;17.85;3.75;;;;;;;;;;5074772;28;20044;-63
2023/05/17 06:43:10;;;;;;;10.15;3.53;;;;;;;;;;5072455;28;20488;-64
2023/05/17 06:45:35;;;;;;;15.13;3.20;;;;;;;;;;5068448;28;20491;-62
2023/05/17 06:48:01;;;;;;;11.10;2.97;;;;;;;;;;5059925;28;20028;-64
2023/05/17 06:50:27;;;;;;;17.20;3.15;;;;;;;;;;5054507;28;20021;-65
2023/05/17 06:52:52;;;;;;;11.55;2.90;;;;;;;;;;5072730;28;20028;-62
2023/05/17 06:55:18;;;;;;;15.50;3.00;;;;;;;;;;5073463;28;20378;-64
2023/05/17 06:57:43;;;;;;;12.75;3.00;;;;;;;;;;5069446;28;20017;-64
2023/05/17 07:00:09;;;;;;;10.18;2.60;;;;;;;;;;5070370;28;20047;-62
2023/05/17 07:02:36;;;;;;;12.23;2.72;;;;;;;;;;5062794;28;20060;-65
2023/05/17 07:05:03;;;;;;;11.07;2.28;;;;;;;;;;5053652;28;20041;-62
2023/05/17 07:07:29;;;;;;;11.45;2.55;;;;;;;;;;5064800;28;20064;-63
2023/05/17 07:09:54;;;;;;;12.20;2.88;;;;;;;;;;5072981;28;20060;-63
2023/05/17 07:12:20;;;;;;;13.27;2.53;;;;;;;;;;5073484;28;20048;-63
2023/05/17 07:14:45;;;;;;;10.25;2.60;;;;;;;;;;5073615;28;20031;-63
2023/05/17 07:17:11;;;;;;;11.15;2.50;;;;;;;;;;5065113;28;20032;-63
2023/05/17 07:19:36;;;;;;;12.57;2.58;;;;;;;;;;5072965;28;20400;-64
2023/05/17 07:22:01;;;;;;;10.85;2.42;;;;;;;;;;5074275;28;20396;-61
2023/05/17 07:24:27;;;;;;;12.35;2.50;;;;;;;;;;5073451;28;20062;-63
2023/05/17 07:26:52;;;;;;;10.63;2.40;;;;;;;;;;5073433;28;20043;-63
2023/05/17 07:29:17;;;;;;;11.00;2.47;;;;;;;;;;5072810;28;20125;-65
2023/05/17 07:31:43;;;;;;;11.98;2.33;;;;;;;;;;5073937;28;20107;-65
2023/05/17 07:34:08;;;;;;;11.30;2.30;;;;;;;;;;5054790;28;20028;-65
2023/05/17 07:36:34;;;;;;;9.20;2.30;;;;;;;;;;5071595;28;20032;-65
2023/05/17 07:38:59;;;;;;;8.98;2.15;;;;;;;;;;5073263;28;20052;-65
2023/05/17 07:41:26;;;;;;;7.43;1.80;;;;;;;;;;5072999;28;20036;-65
2023/05/17 07:43:51;;;;;;;9.88;2.10;;;;;;;;;;5073627;28;20029;-63
2023/05/17 07:46:17;;;;;;;7.20;1.92;;;;;;;;;;5071031;28;20029;-65
2023/05/17 07:48:42;;;;;;;8.57;2.10;;;;;;;;;;5067367;28;20465;-64
2023/05/17 07:51:07;;;;;;;7.78;2.00;;;;;;;;;;5070048;28;20032;-64
2023/05/17 07:53:33;;;;;;;8.15;2.03;;;;;;;;;;5073351;28;20111;-62
2023/05/17 07:55:58;;;;;;;8.45;2.20;;;;;;;;;;5067069;28;20028;-62
2023/05/17 07:58:23;;;;;;;8.20;2.10;;;;;;;;;;5070358;28;20032;-64
2023/05/17 08:00:49;;;;;;;7.10;2.10;;;;;;;;;;5072322;28;20123;-62
2023/05/17 08:03:14;;;;;;;13.30;2.35;;;;;;;;;;5069740;28;20059;-67
2023/05/17 08:05:40;;;;;;;9.20;2.15;;;;;;;;;;5065473;28;20033;-65
2023/05/17 08:08:05;;;;;;;9.57;1.98;;;;;;;;;;5066728;28;20035;-64
2023/05/17 08:10:32;;;;;;;7.45;2.00;;;;;;;;;;5073007;28;20030;-64
2023/05/17 08:12:57;;;;;;;10.23;2.05;;;;;;;;;;5070784;28;20032;-64
2023/05/17 08:15:23;;;;;;;8.55;2.00;;;;;;;;;;5072198;28;20629;-63
2023/05/17 08:17:48;;;;;;;7.70;1.92;;;;;;;;;;5070303;28;20123;-63
2023/05/17 08:20:14;;;;;;;10.10;2.10;;;;;;;;;;5071755;28;20064;-64
2023/05/17 08:22:40;;;;;;;8.90;2.30;;;;;;;;;;5071597;28;20044;-62
2023/05/17 08:25:05;;;;;;;7.93;1.92;;;;;;;;;;5070658;28;20021;-63
2023/05/17 08:27:31;;;;;;;8.40;2.10;;;;;;;;;;5071393;28;20415;-64
2023/05/17 08:29:56;;;;;;;8.43;1.98;;;;;;;;;;5072564;28;20086;-63
2023/05/17 08:32:23;;;;;;;6.75;2.03;;;;;;;;;;5071103;28;20347;-65
2023/05/17 08:34:48;;;;;;;12.73;2.10;;;;;;;;;;5071667;28;20115;-66
2023/05/17 08:37:14;;;;;;;5.97;1.95;;;;;;;;;;5071561;28;20116;-64
2023/05/17 08:39:39;;;;;;;11.23;2.03;;;;;;;;;;5070054;28;20405;-63
2023/05/17 08:42:08;;;;;;;9.23;2.10;;;;;;;;;;5072030;28;20034;-64
2023/05/17 08:44:35;;;;;;;9.07;2.20;;;;;;;;;;5070775;28;20469;-63
2023/05/17 08:47:02;;;;;;;8.65;2.20;;;;;;;;;;5066012;28;20032;-62
2023/05/17 08:49:30;;;;;;;8.85;2.45;;;;;;;;;;5063487;28;20085;-62
2023/05/17 08:51:58;;;;;;;9.77;2.25;;;;;;;;;;5071999;28;20031;-62
2023/05/17 08:54:24;;;;;;;11.00;2.03;;;;;;;;;;5059359;28;20115;-62
2023/05/17 08:56:57;;;;;;;8.90;1.90;;;;;;;;;;5067902;28;20373;-64
2023/05/17 08:59:32;;;;;;;11.07;2.08;;;;;;;;;;5068161;28;20108;-64
2023/05/17 09:01:58;;;;;;;8.70;2.00;;;;;;;;;;5071375;28;20433;-65
2023/05/17 09:04:24;;;;;;;8.43;2.10;;;;;;;;;;5070172;28;20047;-64
2023/05/17 09:06:49;;;;;;;8.82;2.00;;;;;;;;;;5071751;28;20045;-63
2023/05/17 09:09:14;;;;;;;9.63;1.85;;;;;;;;;;5069655;28;20040;-62
2023/05/17 09:11:40;;;;;;;11.80;2.33;;;;;;;;;;5052122;28;20104;-64
2023/05/17 09:14:06;;;;;;;12.65;2.30;;;;;;;;;;5053939;28;20497;-64
2023/05/17 09:16:34;;;;;;;7.20;1.90;;;;;;;;;;5051687;28;20025;-64
2023/05/17 09:19:00;;;;;;;5.70;1.90;;;;;;;;;;5070445;28;20035;-64
2023/05/17 09:21:27;;;;;;;5.68;2.00;;;;;;;;;;5068060;28;20106;-64
2023/05/17 09:23:53;;;;;;;9.90;2.40;;;;;;;;;;5071547;28;20121;-61
2023/05/17 09:26:20;;;;;;;9.70;2.13;;;;;;;;;;5054989;28;20058;-64
2023/05/17 09:28:47;;;;;;;7.60;1.88;;;;;;;;;;5065189;28;20086;-63
2023/05/17 09:31:14;;;;;;;10.73;2.28;;;;;;;;;;5064037;28;20055;-63
2023/05/17 09:33:48;;;;;;;9.30;1.90;;;;;;;;;;5062181;28;20469;-63
2023/05/17 09:36:16;;;;;;;11.80;2.40;;;;;;;;;;5050971;28;20029;-62
2023/05/17 09:38:42;;;;;;;6.25;2.00;;;;;;;;;;5060648;28;20020;-63
2023/05/17 09:41:07;;;;;;;10.57;2.72;;;;;;;;;;5065742;28;20046;-63
2023/05/17 09:43:32;;;;;;;9.50;2.10;;;;;;;;;;5070757;28;20034;-65
2023/05/17 09:45:58;;;;;;;7.78;1.95;;;;;;;;;;5071571;28;20039;-62
2023/05/17 09:48:26;;;;;;;7.78;1.88;;;;;;;;;;5068975;28;20029;-63
2023/05/17 09:50:53;;;;;;;8.48;1.90;;;;;;;;;;5071521;28;20038;-63
2023/05/17 09:53:30;;;;;;;7.65;2.00;;;;;;;;;;5068732;28;20036;-64
2023/05/17 09:55:58;;;;;;;8.05;1.98;;;;;;;;;;5071599;28;20054;-64
2023/05/17 09:58:24;;;;;;;6.82;1.73;;;;;;;;;;5074191;28;20120;-63
2023/05/17 10:00:53;;;;;;;6.30;2.15;;;;;;;;;;5074749;28;20040;-64
2023/05/17 10:03:19;;;;;;;9.07;1.80;;;;;;;;;;5073920;28;20093;-63
2023/05/17 10:05:46;;;;;;;8.65;2.13;;;;;;;;;;5075061;28;20116;-64
2023/05/17 10:08:16;;;;;;;9.40;2.22;;;;;;;;;;5073631;28;20456;-63
2023/05/17 10:10:42;;;;;;;7.05;2.10;;;;;;;;;;5080005;28;20476;-63
2023/05/17 10:13:11;;;;;;;8.43;2.00;;;;;;;;;;5080229;28;20097;-63
2023/05/17 10:15:38;;;;;;;6.68;1.80;;;;;;;;;;5073768;28;20033;-63
2023/05/17 10:18:06;;;;;;;8.32;2.40;;;;;;;;;;5075315;28;20051;-63
2023/05/17 10:20:32;;;;;;;9.57;2.33;;;;;;;;;;5073313;28;20029;-63
2023/05/17 10:22:59;;;;;;;6.82;2.00;;;;;;;;;;5073525;28;20035;-63
2023/05/17 10:25:25;;;;;;;8.57;2.08;;;;;;;;;;5074121;28;20366;-64
2023/05/17 10:27:51;;;;;;;8.15;2.72;;;;;;;;;;5073284;28;20025;-62
2023/05/17 10:30:18;;;;;;;6.65;1.88;;;;;;;;;;5073259;28;20036;-62
2023/05/17 10:32:48;;;;;;;9.13;2.25;;;;;;;;;;5074824;28;20020;-62
2023/05/17 10:35:14;;;;;;;7.85;2.30;;;;;;;;;;5072769;28;20028;-62
2023/05/17 10:37:40;;;;;;;9.07;2.40;;;;;;;;;;5073904;28;20032;-61
2023/05/17 10:40:11;;;;;;;7.72;2.40;;;;;;;;;;5073218;28;20059;-61
2023/05/17 10:42:41;;;;;;;6.05;2.00;;;;;;;;;;5074155;28;20469;-61
2023/05/17 10:45:08;;;;;;;7.53;2.13;;;;;;;;;;5074616;28;20067;-61
2023/05/17 10:47:34;;;;;;;7.65;2.10;;;;;;;;;;5071446;28;20051;-61
2023/05/17 10:50:00;;;;;;;5.07;1.90;;;;;;;;;;5074569;28;20029;-63
2023/05/17 10:52:26;;;;;;;9.93;2.00;;;;;;;;;;5073621;28;20036;-63
2023/05/17 10:54:52;;;;;;;6.15;1.90;;;;;;;;;;5072888;28;20047;-64
2023/05/17 10:57:32;;;;;;;9.60;2.30;;;;;;;;;;5073221;28;20369;-63
2023/05/17 11:00:00;;;;;;;4.75;1.92;;;;;;;;;;5071144;28;20040;-63
2023/05/17 11:02:27;;;;;;;8.13;2.22;;;;;;;;;;5071430;28;20060;-63
2023/05/17 11:04:54;;;;;;;7.78;2.10;;;;;;;;;;5074138;28;20043;-62
2023/05/17 11:07:22;;;;;;;7.32;2.15;;;;;;;;;;5073086;28;20060;-63
2023/05/17 11:09:48;;;;;;;7.15;2.00;;;;;;;;;;5071161;28;20037;-63
2023/05/17 11:12:14;;;;;;;6.93;2.30;;;;;;;;;;5072365;28;20042;-62
2023/05/17 11:14:53;;;;;;;7.13;2.00;;;;;;;;;;5071161;28;20032;-63
2023/05/17 11:17:21;;;;;;;7.40;1.88;;;;;;;;;;5070748;28;20115;-63
2023/05/17 11:20:00;;;;;;;12.48;1.90;;;;;;;;;;5062604;28;20412;-63
2023/05/17 11:22:26;;;;;;;8.30;1.90;;;;;;;;;;5071585;28;20035;-63
2023/05/17 11:24:55;;;;;;;5.55;1.85;;;;;;;;;;5073181;28;20041;-63
2023/05/17 11:27:26;;;;;;;5.60;1.95;;;;;;;;;;5072980;28;20058;-62
2023/05/17 11:29:54;;;;;;;4.30;1.80;;;;;;;;;;5074051;28;20043;-62
2023/05/17 11:32:31;;;;;;;8.38;1.80;;;;;;;;;;5070604;28;20028;-63
2023/05/17 11:35:00;;;;;;;6.05;1.92;;;;;;;;;;5073776;28;20075;-64
2023/05/17 11:37:27;;;;;;;7.15;2.08;;;;;;;;;;5072799;28;20024;-63
2023/05/17 11:40:03;;;;;;;7.18;2.08;;;;;;;;;;5071062;28;20049;-64
2023/05/17 11:42:28;;;;;;;7.13;2.03;;;;;;;;;;5072588;28;20043;-63
2023/05/17 11:44:57;;;;;;;9.10;2.22;;;;;;;;;;5068107;28;20044;-63
2023/05/17 11:47:22;;;;;;;9.70;1.73;;;;;;;;;;5071568;28;20032;-63
2023/05/17 11:49:51;;;;;;;9.50;1.90;;;;;;;;;;5073638;28;20086;-63
2023/05/17 11:52:17;;;;;;;6.38;1.80;;;;;;;;;;5070785;28;20028;-63
2023/05/17 11:54:42;;;;;;;6.38;2.00;;;;;;;;;;5073690;28;20151;-63
2023/05/17 11:57:08;;;;;;;8.43;1.95;;;;;;;;;;5073442;28;20078;-62
2023/05/17 11:59:38;;;;;;;6.90;1.90;;;;;;;;;;5070504;28;20040;-62
2023/05/17 12:02:04;;;;;;;6.70;1.98;;;;;;;;;;5070710;28;20555;-62
2023/05/17 12:04:34;;;;;;;6.05;1.98;;;;;;;;;;5064295;28;20107;-63
2023/05/17 12:07:00;;;;;;;7.45;2.08;;;;;;;;;;5052940;28;20155;-63
2023/05/17 12:09:26;;;;;;;8.20;2.17;;;;;;;;;;5064763;28;20120;-63
2023/05/17 12:11:52;;;;;;;6.20;1.90;;;;;;;;;;5073017;28;20032;-63
2023/05/17 12:14:19;;;;;;;5.47;1.77;;;;;;;;;;5061740;28;20472;-63
2023/05/17 12:16:52;;;;;;;6.25;1.88;;;;;;;;;;5073084;28;20024;-61
2023/05/17 12:19:23;;;;;;;8.02;2.03;;;;;;;;;;5069182;28;20120;-62
2023/05/17 12:21:49;;;;;;;6.22;1.90;;;;;;;;;;5071693;28;20036;-63
2023/05/17 12:24:15;;;;;;;6.18;1.98;;;;;;;;;;5071831;28;20090;-62
2023/05/17 12:26:44;;;;;;;8.57;2.00;;;;;;;;;;5068505;28;20139;-63
2023/05/17 12:29:10;;;;;;;6.60;2.00;;;;;;;;;;5061813;28;20113;-63
2023/05/17 12:31:50;;;;;;;6.03;1.95;;;;;;;;;;5071786;28;20036;-63
2023/05/17 12:34:17;;;;;;;5.97;2.00;;;;;;;;;;5064250;28;20033;-62
2023/05/17 12:36:43;;;;;;;8.98;1.98;;;;;;;;;;5072171;28;20507;-62
2023/05/17 12:39:10;;;;;;;4.68;1.80;;;;;;;;;;5072340;28;20489;-63
2023/05/17 12:41:37;;;;;;;8.18;1.98;;;;;;;;;;5071792;28;20032;-63
2023/05/17 12:44:03;;;;;;;7.95;2.00;;;;;;;;;;5072411;28;20037;-64
2023/05/17 12:46:30;;;;;;;5.68;1.80;;;;;;;;;;5053201;28;20044;-62
2023/05/17 12:49:04;;;;;;;7.65;2.00;;;;;;;;;;5070864;28;20115;-63
2023/05/17 12:51:42;;;;;;;8.65;1.92;;;;;;;;;;5071520;28;20036;-63
2023/05/17 12:54:07;;;;;;;7.25;1.90;;;;;;;;;;5071632;28;20039;-63
2023/05/17 12:56:33;;;;;;;5.07;1.73;;;;;;;;;;5069269;28;20116;-62
2023/05/17 12:59:15;;;;;;;7.07;1.92;;;;;;;;;;5072159;28;20036;-61
2023/05/17 13:01:54;;;;;;;6.70;2.35;;;;;;;;;;5070672;28;20036;-63
2023/05/17 13:04:26;;;;;;;6.28;1.70;;;;;;;;;;5070090;28;20036;-63
2023/05/17 13:06:56;;;;;;;4.28;1.83;;;;;;;;;;5069380;28;20036;-62
2023/05/17 13:09:24;;;;;;;6.87;2.03;;;;;;;;;;5059380;28;20184;-62
2023/05/17 13:11:54;;;;;;;8.93;2.00;;;;;;;;;;5071876;28;20289;-62
2023/05/17 13:14:35;;;;;;;;;;;;;;;;;;5060818;28;20530;-62
2023/05/17 13:17:01;;;;;;;8.23;2.00;;;;;;;;;;5071642;28;19958;-63
2023/05/17 13:19:27;;;;;;;6.15;2.00;;;;;;;;;;5069790;28;20037;-61
2023/05/17 13:21:52;;;;;;;6.88;1.90;;;;;;;;;;5069834;28;20043;-62
2023/05/17 13:24:17;;;;;;;7.07;2.10;;;;;;;;;;5068728;28;20078;-63
2023/05/17 13:26:43;;;;;;;6.63;1.77;;;;;;;;;;5071185;28;20036;-63
2023/05/17 13:29:08;;;;;;;8.77;2.00;;;;;;;;;;5060372;28;20063;-64
2023/05/17 13:31:34;;;;;;;6.78;2.17;;;;;;;;;;5069987;28;20115;-64
2023/05/17 13:34:00;;;;;;;7.68;2.00;;;;;;;;;;5071684;28;20035;-64
2023/05/17 13:36:25;;;;;;;6.22;2.10;;;;;;;;;;5069538;28;20054;-65
2023/05/17 13:38:50;;;;;;;8.60;2.13;;;;;;;;;;5068114;28;20071;-62
2023/05/17 13:41:16;;;;;;;8.93;2.20;;;;;;;;;;5071266;28;20037;-63
2023/05/17 13:43:41;;;;;;;4.75;1.90;;;;;;;;;;5069725;28;20036;-63
2023/05/17 13:46:08;;;;;;;7.25;2.03;;;;;;;;;;5059011;28;20031;-63
2023/05/17 13:48:33;;;;;;;7.20;2.17;;;;;;;;;;5055257;28;20032;-62
2023/05/17 13:50:59;;;;;;;7.57;2.20;;;;;;;;;;5070618;28;20031;-63
2023/05/17 13:53:24;;;;;;;8.20;2.10;;;;;;;;;;5070625;28;20036;-62
2023/05/17 13:55:50;;;;;;;6.50;2.17;;;;;;;;;;5069238;28;20036;-60
2023/05/17 13:58:16;;;;;;;7.75;2.08;;;;;;;;;;5071010;28;20033;-63
2023/05/17 14:00:43;;;;;;;8.02;2.10;;;;;;;;;;5071115;28;20037;-61
2023/05/17 14:03:10;;;;;;;5.00;1.80;;;;;;;;;;5059243;28;20037;-60
2023/05/17 14:05:36;;;;;;;8.43;2.25;;;;;;;;;;5066413;28;20047;-61
2023/05/17 14:08:02;;;;;;;9.40;2.47;;;;;;;;;;5062801;28;20029;-62
2023/05/17 14:10:28;;;;;;;7.13;2.13;;;;;;;;;;5062249;28;20028;-61
2023/05/17 14:12:54;;;;;;;10.02;2.33;;;;;;;;;;5071157;28;20021;-60
2023/05/17 14:15:20;;;;;;;10.80;2.50;;;;;;;;;;5067992;28;20511;-63
2023/05/17 14:17:46;;;;;;;9.00;2.38;;;;;;;;;;5069483;28;20028;-60
2023/05/17 14:20:12;;;;;;;8.98;2.30;;;;;;;;;;5071360;28;20474;-61
2023/05/17 14:22:38;;;;;;;6.65;2.10;;;;;;;;;;5069657;28;20031;-61
2023/05/17 14:25:03;;;;;;;6.95;2.20;;;;;;;;;;5067312;28;20107;-62
2023/05/17 14:27:29;;;;;;;8.98;2.40;;;;;;;;;;5059077;28;20107;-61
2023/05/17 14:29:54;;;;;;;8.23;2.30;;;;;;;;;;5071141;28;20123;-69
2023/05/17 14:32:20;;;;;;;8.90;2.45;;;;;;;;;;5063503;28;20032;-62
2023/05/17 14:34:45;;;;;;;5.82;2.30;;;;;;;;;;5069822;28;20028;-62